CheckWX is a tool to help pilots better visualize weather data.  It is not intended as a substitute for an official pre-flight weather briefing.

17:38:10 UTC

KEVW METAR
Evanston-Uinta County Burns Field Airport
Evanston, Wyoming, USA
Current

45 mins ago

KEVW 241653Z AUTO 16003KT 10SM OVC040 02/M01 A3005 RMK AO2 SLP167 T00171011
Observed
Mar-24 @ 16:53 UTC
Wind
  • 160° at 3 KTS
Visibility
10 SM
Flight Rules
VFR
Cloud Levels
  • Overcast at 4,000' AGL
Temperature
C / 36°F
Dewpoint
-1°C / 30°F
Humidity
81%
Altimeter
30.05" Hg
Pressure
1016.7 hPa
Previous

1 hour ago

KEVW 241636Z AUTO 16004KT 10SM SCT025 OVC038 02/M01 A3004 RMK AO2 T00171011
Observed
Mar-24 @ 16:36 UTC
Wind
  • 160° at 4 KTS
Visibility
10 SM
Flight Rules
VFR
Cloud Levels
  • Scattered at 2,500' AGL
  • Overcast at 3,800' AGL
Temperature
C / 36°F
Dewpoint
-1°C / 30°F
Humidity
81%
Altimeter
30.04" Hg
Pressure
1017.32 hPa
Previous

2 hours ago

KEVW 241553Z AUTO 12005KT 10SM OVC024 01/M02 A3004 RMK AO2 SNE07 SLP161 P0000 T00111017
Observed
Mar-24 @ 15:53 UTC
Wind
  • 120° at 5 KTS
Visibility
10 SM
Flight Rules
MVFR
Cloud Levels
  • Overcast at 2,400' AGL
Temperature
C / 34°F
Dewpoint
-2°C / 28°F
Humidity
81%
Altimeter
30.04" Hg
Pressure
1016.1 hPa
Current Rain
0.01"